| time (UTC) | temp F | wind direction | speed MPH | gust MPH | rain 1hr in | rain 24hr in | rain mn in | humidity % | barometer mb |
| 20260508150047 | 53 | 229 | 6.0 | 13.0 | 0.00 | 0.00 | 0.00 | 70 | 1013.5 |
| 20260508144548 | 53 | 244 | 6.0 | 11.0 | 0.00 | 0.00 | 0.00 | 69 | 1013.5 |
| 20260508143059 | 52 | 239 | 5.0 | 12.0 | 0.00 | 0.00 | 0.00 | 69 | 1013.4 |
| 20260508141552 | 52 | 241 | 6.0 | 10.0 | 0.00 | 0.00 | 0.00 | 70 | 1013.4 |
| 20260508140043 | 52 | 238 | 6.0 | 13.0 | 0.00 | 0.00 | 0.00 | 68 | 1013.5 |
| 20260508134548 | 52 | 254 | 7.0 | 11.0 | 0.00 | 0.00 | 0.00 | 69 | 1013.5 |
| 20260508133054 | 52 | 241 | 6.0 | 12.0 | 0.00 | 0.00 | 0.00 | 69 | 1013.5 |
| 20260508131546 | 52 | 250 | 6.0 | 12.0 | 0.00 | 0.00 | 0.00 | 70 | 1013.4 |
| 20260508130054 | 51 | 238 | 9.0 | 12.0 | 0.00 | 0.00 | 0.00 | 69 | 1013.4 |
| 20260508124544 | 51 | 250 | 7.0 | 10.0 | 0.00 | 0.00 | 0.00 | 71 | 1013.4 |
| 20260508123047 | 49 | 221 | 5.0 | 9.0 | 0.00 | 0.00 | 0.00 | 74 | 1013.4 |
| 20260508121603 | 48 | 360 | 2.0 | 8.0 | 0.00 | 0.00 | 0.00 | 75 | 1013.4 |
| 20260508120050 | 48 | 360 | 3.0 | 6.0 | 0.00 | 0.00 | 0.00 | 75 | 1013.4 |
| 20260508114545 | 48 | 360 | 3.0 | 9.0 | 0.00 | 0.00 | 0.00 | 75 | 1013.1 |
| 20260508113049 | 47 | 192 | 3.0 | 8.0 | 0.00 | 0.00 | 0.00 | 77 | 1013.0 |
| 20260508111547 | 45 | 360 | 2.0 | 5.0 | 0.00 | 0.00 | 0.00 | 79 | 1012.9 |
| 20260508110055 | 44 | 360 | 1.0 | 4.0 | 0.00 | 0.00 | 0.00 | 81 | 1012.8 |
| 20260508104546 | 43 | 360 | 1.0 | 3.0 | 0.00 | 0.00 | 0.00 | 83 | 1012.8 |
| 20260508103041 | 43 | 360 | 1.0 | 3.0 | 0.00 | 0.00 | 0.00 | 84 | 1012.6 |
| 20260508101541 | 42 | 360 | 0.0 | 3.0 | 0.00 | 0.00 | 0.00 | 85 | 1012.4 |
| 20260508100048 | 43 | 360 | 1.0 | 3.0 | 0.00 | 0.00 | 0.00 | 85 | 1012.4 |
| 20260508094600 | 43 | 360 | 2.0 | 4.0 | 0.00 | 0.00 | 0.00 | 86 | 1012.4 |
| 20260508093047 | 42 | 360 | 1.0 | 3.0 | 0.00 | 0.00 | 0.00 | 87 | 1012.5 |
| 20260508091551 | 43 | 360 | 1.0 | 3.0 | 0.00 | 0.00 | 0.00 | 87 | 1012.7 |
| 20260508090042 | 44 | 360 | 1.0 | 4.0 | 0.00 | 0.00 | 0.00 | 86 | 1012.8 |
| 20260508084543 | 45 | 360 | 2.0 | 4.0 | 0.00 | 0.00 | 0.00 | 85 | 1012.8 |
| 20260508083127 | 46 | 360 | 2.0 | 3.0 | 0.00 | 0.00 | 0.00 | 84 | 1012.8 |
| 20260508081554 | 46 | 360 | 0.0 | 3.0 | 0.00 | 0.00 | 0.00 | 82 | 1012.9 |
| 20260508080052 | 46 | 360 | 2.0 | 3.0 | 0.00 | 0.00 | 0.00 | 83 | 1012.8 |
| 20260508074542 | 47 | 360 | 2.0 | 3.0 | 0.00 | 0.00 | 0.00 | 81 | 1012.9 |
| 20260508073300 | 47 | 360 | 1.0 | 3.0 | 0.00 | 0.00 | 0.00 | 82 | 1012.9 |
| 20260508071551 | 48 | 360 | 1.0 | 3.0 | 0.00 | 0.00 | 0.00 | 81 | 1013.0 |
| 20260508070047 | 48 | 0 | 0.0 | 2.0 | 0.00 | 0.00 | 0.00 | 79 | 1013.0 |
| 20260508064607 | 48 | 360 | 2.0 | 3.0 | 0.00 | 0.00 | 0.00 | 79 | 1013.0 |
| 20260508063047 | 49 | 0 | 0.0 | 5.0 | 0.00 | 0.00 | 0.00 | 78 | 1013.4 |
| 20260508061702 | 49 | 360 | 4.0 | 10.0 | 0.00 | 0.00 | 0.00 | 76 | 1013.9 |
| 20260508060049 | 49 | 360 | 8.0 | 14.0 | 0.00 | 0.00 | 0.00 | 76 | 1013.9 |
| 20260508054548 | 49 | 360 | 15.0 | 22.0 | 0.00 | 0.00 | 0.00 | 77 | 1014.3 |
| 20260508053042 | 48 | 360 | 3.0 | 5.0 | 0.00 | 0.00 | 0.00 | 84 | 1014.1 |
| 20260508051545 | 47 | 0 | 0.0 | 3.0 | 0.00 | 0.00 | 0.00 | 85 | 1013.3 |
| 20260508050052 | 48 | 360 | 2.0 | 3.0 | 0.00 | 0.00 | 0.00 | 86 | 1013.3 |
| 20260508044546 | 48 | 360 | 1.0 | 3.0 | 0.00 | 0.00 | 0.00 | 81 | 1013.4 |
| 20260508043048 | 48 | 0 | 0.0 | 2.0 | 0.00 | 0.00 | 0.00 | 79 | 1013.4 |
| 20260508041545 | 48 | 360 | 0.0 | 2.0 | 0.00 | 0.00 | 0.00 | 79 | 1013.4 |
| 20260508040043 | 48 | 0 | 0.0 | 3.0 | 0.00 | 0.00 | 0.00 | 79 | 1013.4 |
| 20260508034551 | 49 | 360 | 0.0 | 2.0 | 0.00 | 0.00 | 0.00 | 77 | 1013.4 |
| 20260508033048 | 49 | 0 | 0.0 | 2.0 | 0.00 | 0.00 | 0.00 | 75 | 1013.6 |
| 20260508031547 | 49 | 0 | 0.0 | 3.0 | 0.00 | 0.00 | 0.00 | 72 | 1013.5 |
| 20260508030059 | 49 | 0 | 0.0 | 1.0 | 0.00 | 0.00 | 0.00 | 70 | 1013.6 |
| 20260508024558 | 49 | 360 | 0.0 | 1.0 | 0.00 | 0.00 | 0.00 | 70 | 1013.4 |
| 20260508023048 | 50 | 0 | 0.0 | 2.0 | 0.00 | 0.00 | 0.00 | 66 | 1013.3 |
| 20260508021548 | 49 | 0 | 0.0 | 1.0 | 0.00 | 0.00 | 0.00 | 71 | 1013.2 |
| 20260508020050 | 49 | 0 | 0.0 | 4.0 | 0.00 | 0.00 | 0.00 | 70 | 1013.2 |
| 20260508014548 | 50 | 360 | 2.0 | 5.0 | 0.00 | 0.00 | 0.00 | 72 | 1013.3 |
| 20260508013048 | 50 | 360 | 1.0 | 4.0 | 0.00 | 0.00 | 0.00 | 70 | 1013.1 |
| 20260508011558 | 50 | 360 | 2.0 | 3.0 | 0.00 | 0.00 | 0.00 | 71 | 1013.1 |
| 20260508010058 | 51 | 0 | 0.0 | 2.0 | 0.00 | 0.00 | 0.00 | 74 | 1013.1 |
| 20260508004557 | 51 | 360 | 1.0 | 3.0 | 0.00 | 0.00 | 0.00 | 69 | 1013.0 |
| 20260508003049 | 52 | 360 | 1.0 | 2.0 | 0.00 | 0.00 | 0.00 | 69 | 1013.0 |
| 20260508001547 | 52 | 0 | 0.0 | 3.0 | 0.00 | 0.00 | 0.00 | 65 | 1012.8 |
| 20260508000047 | 53 | 295 | 1.0 | 4.0 | 0.00 | 0.00 | 0.00 | 62 | 1012.7 |
| 20260507234542 | 54 | 360 | 3.0 | 8.0 | 0.00 | 0.00 | 0.00 | 60 | 1012.6 |
| 20260507233041 | 55 | 311 | 8.0 | 10.0 | 0.00 | 0.00 | 0.00 | 53 | 1012.6 |
| 20260507231604 | 56 | 306 | 8.0 | 12.0 | 0.00 | 0.00 | 0.00 | 50 | 1012.6 |
| 20260507230052 | 55 | 319 | 10.0 | 15.0 | 0.00 | 0.00 | 0.00 | 54 | 1012.8 |
| 20260507224602 | 56 | 316 | 11.0 | 15.0 | 0.00 | 0.00 | 0.00 | 52 | 1012.8 |
| 20260507223047 | 56 | 333 | 8.0 | 16.0 | 0.00 | 0.00 | 0.00 | 51 | 1012.8 |
| 20260507221542 | 55 | 317 | 8.0 | 15.0 | 0.00 | 0.00 | 0.00 | 50 | 1012.9 |
| 20260507220041 | 56 | 24 | 9.0 | 19.0 | 0.00 | 0.00 | 0.00 | 50 | 1012.9 |
| 20260507214548 | 57 | 298 | 9.0 | 17.0 | 0.00 | 0.00 | 0.00 | 50 | 1012.7 |
| 20260507213104 | 56 | 319 | 14.0 | 21.0 | 0.00 | 0.00 | 0.00 | 51 | 1012.8 |
| 20260507211549 | 56 | 327 | 12.0 | 18.0 | 0.00 | 0.00 | 0.00 | 51 | 1012.6 |
| 20260507210052 | 56 | 327 | 15.0 | 19.0 | 0.00 | 0.00 | 0.00 | 54 | 1012.6 |
| 20260507204556 | 57 | 314 | 13.0 | 21.0 | 0.00 | 0.00 | 0.00 | 55 | 1012.5 |
| 20260507203048 | 56 | 309 | 15.0 | 22.0 | 0.00 | 0.00 | 0.00 | 52 | 1012.4 |
| 20260507201547 | 56 | 313 | 16.0 | 22.0 | 0.00 | 0.00 | 0.00 | 53 | 1012.6 |
| 20260507200049 | 56 | 323 | 8.0 | 17.0 | 0.00 | 0.00 | 0.00 | 53 | 1012.6 |
| 20260507194546 | 56 | 300 | 18.0 | 25.0 | 0.00 | 0.00 | 0.00 | 54 | 1012.7 |
| 20260507193045 | 55 | 313 | 18.0 | 24.0 | 0.00 | 0.00 | 0.00 | 57 | 1012.9 |
| 20260507191542 | 56 | 299 | 16.0 | 23.0 | 0.00 | 0.00 | 0.00 | 58 | 1012.9 |
| 20260507190056 | 56 | 329 | 14.0 | 20.0 | 0.00 | 0.00 | 0.00 | 57 | 1012.9 |
| 20260507184547 | 55 | 301 | 13.0 | 24.0 | 0.00 | 0.00 | 0.00 | 58 | 1012.9 |
| 20260507183048 | 55 | 274 | 14.0 | 28.0 | 0.00 | 0.00 | 0.00 | 64 | 1013.1 |
| 20260507181546 | 55 | 281 | 14.0 | 23.0 | 0.00 | 0.00 | 0.00 | 66 | 1013.1 |
| 20260507180051 | 54 | 319 | 15.0 | 22.0 | 0.00 | 0.00 | 0.00 | 63 | 1013.1 |
| 20260507174542 | 54 | 281 | 10.0 | 20.0 | 0.00 | 0.00 | 0.00 | 65 | 1013.2 |
| 20260507173054 | 53 | 293 | 15.0 | 20.0 | 0.00 | 0.00 | 0.00 | 65 | 1013.3 |
| 20260507171551 | 53 | 250 | 13.0 | 19.0 | 0.00 | 0.00 | 0.00 | 69 | 1013.5 |
| 20260507170050 | 53 | 312 | 13.0 | 22.0 | 0.00 | 0.00 | 0.00 | 64 | 1013.7 |
| 20260507164548 | 53 | 314 | 15.0 | 23.0 | 0.00 | 0.00 | 0.00 | 65 | 1013.6 |
| 20260507163051 | 53 | 300 | 16.0 | 21.0 | 0.00 | 0.00 | 0.00 | 64 | 1013.8 |
| 20260507161548 | 52 | 273 | 11.0 | 18.0 | 0.00 | 0.00 | 0.00 | 61 | 1013.6 |
| 20260507160056 | 52 | 262 | 13.0 | 19.0 | 0.00 | 0.00 | 0.00 | 67 | 1013.5 |
| 20260507154548 | 52 | 267 | 13.0 | 18.0 | 0.00 | 0.00 | 0.00 | 68 | 1013.4 |
| 20260507153051 | 52 | 321 | 14.0 | 18.0 | 0.00 | 0.00 | 0.00 | 66 | 1013.4 |
| 20260507151545 | 51 | 299 | 9.0 | 16.0 | 0.00 | 0.00 | 0.00 | 68 | 1013.4 |